This is the latest recevied weather packets stored in our database for station/object F5IOR. If no packets are shown the sender has not sent any weather packets the latest 10 day(s).
| Time | Temp. | Humidity | Pressure | Rain* | Wind** | Luminosity | Snow |
|---|---|---|---|---|---|---|---|
| 1787816059 | 23.89° C | 56% | 984 hPa | 9.65 mm | - | - | - |
| 1787815999 | 23.89° C | 56% | 984 hPa | 9.65 mm | - | - | - |
| 1787771176 | 26.67° C | 47% | 982.2 hPa | 0 mm | - | - | - |
| 1787769377 | 27.78° C | 45% | 982.1 hPa | 0 mm | - | - | - |
| 1787767577 | 29.44° C | 40% | 982.2 hPa | 0 mm | - | - | - |
| 1787765776 | 30° C | 40% | 982.3 hPa | 0 mm | - | - | - |
| 1787763976 | 30° C | 39% | 982.8 hPa | 0 mm | - | - | - |
| 1787762176 | 30.56° C | 38% | 982.9 hPa | 0 mm | - | - | - |
| 1787760377 | 31.11° C | 37% | 983.1 hPa | 0 mm | - | - | - |
| 1787758577 | 31.11° C | 37% | 983.2 hPa | 0 mm | - | - | - |
| 1787756777 | 31.11° C | 37% | 984 hPa | 0 mm | - | - | - |
| 1787754977 | 31.11° C | 37% | 984.2 hPa | 0 mm | - | - | - |
| 1787753177 | 30.56° C | 38% | 984.9 hPa | 0 mm | - | - | - |
| 1787751377 | 30.56° C | 39% | 985 hPa | 0 mm | - | - | - |
| 1787749577 | 30° C | 40% | 985.7 hPa | 0 mm | - | - | - |
| 1787747777 | 30° C | 41% | 985.8 hPa | 0 mm | - | - | - |
| 1787745977 | 28.89° C | 44% | 986.1 hPa | 0 mm | - | - | - |
| 1787744177 | 28.89° C | 45% | 986.3 hPa | 0 mm | - | - | - |
| 1787742377 | 27.78° C | 50% | 986.8 hPa | 0 mm | - | - | - |
| 1787740577 | 27.78° C | 52% | 986.9 hPa | 0 mm | - | - | - |
| 1787738777 | 26.11° C | 58% | 987.5 hPa | 0 mm | - | - | - |
| 1787736977 | 25.56° C | 61% | 987.5 hPa | 0 mm | - | - | - |
| 1787736016 | 24.44° C | 66% | 987.7 hPa | 0 mm | - | - | - |
| 1787735056 | 23.89° C | 68% | 987.8 hPa | 0 mm | - | - | - |
| 1787734097 | 23.33° C | 71% | 987.8 hPa | 0 mm | - | - | - |
* Rain latest hour (hover to see other rain measurements)
** Current wind speed in m/s (hover to see current wind gust speed)